Time;durP1;ratioP1;P1;durP2;ratioP2;P2;SDS_P1;SDS_P2;PMS_P1;PMS_P2;Temp;Humidity;BMP_temperature;BMP_pressure;BME280_temperature;BME280_humidity;BME280_pressure;Samples;Min_cycle;Max_cycle;Signal;HPM_P1;HPM_P2
2022/04/25 00:02:11;;;;;;;;;;;;;;;15.47;63.04;99019.84;4972405;28;19914;-83
2022/04/25 00:04:36;;;;;;;;;;;;;;;15.42;63.70;99020.06;4971988;28;19910;-84
2022/04/25 00:07:02;;;;;;;;;;;;;;;15.45;63.38;99027.03;4971243;28;20005;-84
2022/04/25 00:09:27;;;;;;;;;;;;;;;15.51;63.63;99019.63;4969766;28;19919;-83
2022/04/25 00:11:52;;;;;;;;;;;;;;;15.45;63.89;99024.38;4969842;28;20051;-81
2022/04/25 00:14:17;;;;;;;;;;;;;;;15.39;63.90;99029.03;4970999;28;19997;-82
2022/04/25 00:16:43;;;;;;;;;;;;;;;15.20;64.45;99010.41;4969692;28;19918;-81
2022/04/25 00:19:08;;;;;;;;;;;;;;;15.38;64.03;99029.09;4969526;28;19925;-81
2022/04/25 00:21:34;;;;;;;;;;;;;;;15.38;64.34;99035.28;4969381;28;19926;-83
2022/04/25 00:23:59;;;;;;;;;;;;;;;15.35;64.55;99037.19;4968624;28;19918;-82
2022/04/25 00:26:25;;;;;;;;;;;;;;;15.32;64.21;99035.56;4968840;28;19914;-84
2022/04/25 00:28:50;;;;;;;;;;;;;;;15.28;64.46;99036.63;4968471;28;19914;-82
2022/04/25 00:31:15;;;;;;;;;;;;;;;15.20;64.45;99039.63;4968839;28;20403;-83
2022/04/25 00:33:41;;;;;;;;;;;;;;;15.24;64.56;99043.00;4968768;28;20380;-84
2022/04/25 00:36:06;;;;;;;;;;;;;;;15.18;63.99;99036.19;4968864;28;19914;-85
2022/04/25 00:38:32;;;;;;;;;;;;;;;15.18;64.44;99045.94;4969075;28;19918;-83
2022/04/25 00:40:57;;;;;;;;;;;;;;;15.11;65.10;99040.03;4968527;28;20385;-83
2022/04/25 00:43:22;;;;;;;;;;;;;;;15.08;64.91;99045.47;4968676;28;19914;-84
2022/04/25 00:45:47;;;;;;;;;;;;;;;15.15;64.43;99036.31;4968704;28;20477;-83
2022/04/25 00:48:13;;;;;;;;;;;;;;;15.06;64.61;99043.81;4968439;28;20052;-83
2022/04/25 00:50:39;;;;;;;;;;;;;;;14.91;65.50;99051.53;4968979;28;20004;-84
2022/04/25 00:53:05;;;;;;;;;;;;;;;14.82;66.03;99047.47;4968839;28;19988;-83
2022/04/25 00:55:30;;;;;;;;;;;;;;;14.78;65.97;99045.00;4968465;28;19948;-85
2022/04/25 00:57:56;;;;;;;;;;;;;;;14.77;66.39;99044.16;4967771;28;20327;-84
2022/04/25 01:00:22;;;;;;;;;;;;;;;14.71;66.58;99054.16;4968779;28;19925;-84
2022/04/25 01:02:48;;;;;;;;;;;;;;;14.57;67.35;99052.06;4968409;28;19918;-84
2022/04/25 01:05:13;;;;;;;;;;;;;;;14.58;67.22;99053.75;4968643;28;19918;-84
2022/04/25 01:07:38;;;;;;;;;;;;;;;14.54;67.29;99053.03;4968642;28;19918;-86
2022/04/25 01:10:04;;;;;;;;;;;;;;;14.60;66.73;99052.81;4968298;28;20297;-84
2022/04/25 01:12:30;;;;;;;;;;;;;;;14.51;66.58;99051.38;4968503;28;19925;-84
2022/04/25 01:14:59;;;;;;;;;;;;;;;14.50;66.87;99054.97;4968621;28;19914;-83
2022/04/25 01:17:24;;;;;;;;;;;;;;;14.51;66.81;99046.06;4968523;28;19925;-84
2022/04/25 01:19:50;;;;;;;;;;;;;;;14.48;66.80;99048.84;4968092;28;19918;-85
2022/04/25 01:22:19;;;;;;;;;;;;;;;14.32;67.43;99048.63;4968730;28;19964;-84
2022/04/25 01:27:28;;;;;;;;;;;;;;;14.21;68.52;99057.91;4970559;28;19925;-85
2022/04/25 01:29:54;;;;;;;;;;;;;;;13.84;70.55;99052.28;4972146;28;20320;-85
2022/04/25 01:32:20;;;;;;;;;;;;;;;13.79;70.43;99051.59;4972081;28;20332;-84
2022/04/25 01:34:46;;;;;;;;;;;;;;;13.84;70.08;99047.00;4971901;28;19914;-83
2022/04/25 01:37:12;;;;;;;;;;;;;;;13.89;70.44;99031.75;4972208;28;19917;-84
2022/04/25 01:39:39;;;;;;;;;;;;;;;14.04;69.17;99035.59;4972125;28;19915;-83
2022/04/25 01:42:05;;;;;;;;;;;;;;;14.18;69.31;99031.53;4971563;28;19918;-83
2022/04/25 01:44:30;;;;;;;;;;;;;;;14.15;69.07;99041.34;4971920;28;19918;-84
2022/04/25 01:46:56;;;;;;;;;;;;;;;14.15;68.66;99045.78;4971839;28;20012;-83
2022/04/25 01:49:21;;;;;;;;;;;;;;;14.19;68.40;99041.22;4972130;28;19922;-83
2022/04/25 01:51:47;;;;;;;;;;;;;;;14.05;68.57;99037.31;4972182;28;19953;-84
2022/04/25 01:54:13;;;;;;;;;;;;;;;13.93;68.09;99030.72;4971827;28;19921;-85
2022/04/25 01:56:38;;;;;;;;;;;;;;;13.81;68.44;99039.16;4971770;28;19925;-83
2022/04/25 01:59:03;;;;;;;;;;;;;;;13.51;69.49;99038.53;4971466;28;19957;-83
2022/04/25 02:01:28;;;;;;;;;;;;;;;13.59;69.07;99039.97;4969809;28;20016;-83
2022/04/25 02:03:54;;;;;;;;;;;;;;;13.61;68.95;99039.91;4971561;28;20032;-85
2022/04/25 02:06:19;;;;;;;;;;;;;;;13.59;68.90;99033.78;4971710;28;19957;-83
2022/04/25 02:08:45;;;;;;;;;;;;;;;13.55;69.01;99027.75;4971305;28;19988;-84
2022/04/25 02:11:20;;;;;;;;;;;;;;;13.55;69.20;99019.81;4971290;28;20710;-83
2022/04/25 02:13:46;;;;;;;;;;;;;;;13.65;68.37;99025.59;4971087;28;19914;-83
2022/04/25 02:16:11;;;;;;;;;;;;;;;13.62;68.74;99028.38;4971516;28;19921;-83
2022/04/25 02:18:37;;;;;;;;;;;;;;;13.67;68.21;99022.91;4971649;28;19921;-82
2022/04/25 02:21:02;;;;;;;;;;;;;;;13.58;68.64;99026.78;4969187;28;19921;-84
2022/04/25 02:23:28;;;;;;;;;;;;;;;13.60;68.72;99027.59;4971483;28;19917;-83
2022/04/25 02:25:53;;;;;;;;;;;;;;;13.60;68.38;99031.09;4971156;28;19918;-84
2022/04/25 02:28:18;;;;;;;;;;;;;;;13.61;68.51;99035.47;4971197;28;19988;-85
2022/04/25 02:30:44;;;;;;;;;;;;;;;13.65;68.24;99041.50;4971448;28;19918;-84
2022/04/25 02:33:09;;;;;;;;;;;;;;;13.64;68.28;99028.31;4969962;28;19918;-84
2022/04/25 02:35:34;;;;;;;;;;;;;;;13.59;68.45;99034.69;4970984;28;20672;-82
2022/04/25 02:38:00;;;;;;;;;;;;;;;13.64;68.50;99036.28;4970528;28;20379;-84
2022/04/25 02:40:25;;;;;;;;;;;;;;;13.64;68.37;99033.63;4968727;28;20373;-82
2022/04/25 02:42:50;;;;;;;;;;;;;;;13.62;68.90;99036.31;4971052;28;19929;-83
2022/04/25 02:45:16;;;;;;;;;;;;;;;13.52;68.55;99021.72;4970986;28;19955;-84
2022/04/25 02:47:41;;;;;;;;;;;;;;;13.55;68.27;99032.22;4970594;28;19925;-82
2022/04/25 02:50:07;;;;;;;;;;;;;;;13.36;69.02;99038.19;4970694;28;19918;-83
2022/04/25 02:52:32;;;;;;;;;;;;;;;13.31;70.24;99040.09;4970862;28;19917;-83
2022/04/25 02:54:57;;;;;;;;;;;;;;;13.34;69.93;99040.00;4970514;28;19914;-84
2022/04/25 02:57:23;;;;;;;;;;;;;;;13.31;70.83;99033.94;4970228;28;19918;-83
2022/04/25 02:59:48;;;;;;;;;;;;;;;13.22;70.78;99048.38;4970428;28;20020;-82
2022/04/25 03:02:14;;;;;;;;;;;;;;;13.33;70.45;99045.31;4969948;28;19957;-82
2022/04/25 03:04:39;;;;;;;;;;;;;;;13.37;70.46;99049.63;4970777;28;19917;-83
2022/04/25 03:07:04;;;;;;;;;;;;;;;13.26;71.03;99047.34;4970623;28;19961;-83
2022/04/25 03:09:30;;;;;;;;;;;;;;;13.37;70.60;99041.69;4970471;28;20030;-83
2022/04/25 03:11:57;;;;;;;;;;;;;;;13.38;70.57;99040.78;4970021;28;19918;-84
2022/04/25 03:14:23;;;;;;;;;;;;;;;13.41;70.14;99040.66;4970232;28;19965;-85
2022/04/25 03:16:49;;;;;;;;;;;;;;;13.40;69.92;99050.38;4968515;28;19964;-82
2022/04/25 03:19:17;;;;;;;;;;;;;;;13.35;69.89;99047.03;4970563;28;19925;-82
2022/04/25 03:21:42;;;;;;;;;;;;;;;13.33;70.00;99043.59;4970502;28;19922;-83
2022/04/25 03:24:07;;;;;;;;;;;;;;;13.22;69.42;99048.38;4968430;28;19925;-83
2022/04/25 03:26:33;;;;;;;;;;;;;;;13.22;69.34;99051.00;4969839;28;19914;-83
2022/04/25 03:28:58;;;;;;;;;;;;;;;13.15;69.67;99052.19;4969930;28;19925;-83
2022/04/25 03:31:23;;;;;;;;;;;;;;;13.11;70.02;99053.19;4970187;28;19922;-83
2022/04/25 03:33:49;;;;;;;;;;;;;;;12.92;71.45;99048.53;4970013;28;19917;-82
2022/04/25 03:36:14;;;;;;;;;;;;;;;12.82;71.64;99053.31;4970373;28;19985;-82
2022/04/25 03:38:42;;;;;;;;;;;;;;;12.82;71.38;99053.31;4969878;28;19918;-82
2022/04/25 03:41:08;;;;;;;;;;;;;;;12.98;71.57;99053.63;4969460;28;19969;-83
2022/04/25 03:43:34;;;;;;;;;;;;;;;13.05;70.92;99051.63;4969492;28;19917;-83
2022/04/25 03:46:02;;;;;;;;;;;;;;;13.01;70.72;99052.66;4969691;28;19918;-82
2022/04/25 03:48:27;;;;;;;;;;;;;;;12.82;71.29;99055.06;4969397;28;19925;-83
2022/04/25 03:50:52;;;;;;;;;;;;;;;12.90;70.53;99058.34;4969519;28;19937;-82
2022/04/25 03:53:17;;;;;;;;;;;;;;;12.79;71.04;99053.41;4969490;28;20352;-82
2022/04/25 03:58:27;;;;;;;;;;;;;;;13.07;70.40;99058.59;4969387;28;19945;-82
2022/04/25 04:00:53;;;;;;;;;;;;;;;13.11;70.28;99051.41;4969620;28;19922;-84
2022/04/25 04:03:19;;;;;;;;;;;;;;;13.12;70.88;99050.50;4970002;28;20037;-83
2022/04/25 04:05:47;;;;;;;;;;;;;;;13.23;70.84;99052.75;4969305;28;19929;-83
2022/04/25 04:08:13;;;;;;;;;;;;;;;13.15;70.58;99052.19;4969067;28;19960;-82
2022/04/25 04:10:38;;;;;;;;;;;;;;;13.18;71.03;99057.38;4968834;28;19949;-84
2022/04/25 04:13:05;;;;;;;;;;;;;;;13.17;71.71;99056.47;4969816;28;19917;-83
2022/04/25 04:15:31;;;;;;;;;;;;;;;13.31;71.47;99055.97;4970081;28;20122;-83
2022/04/25 04:17:56;;;;;;;;;;;;;;;13.40;71.54;99054.81;4967997;28;20447;-84
2022/04/25 04:20:22;;;;;;;;;;;;;;;13.51;71.46;99059.72;4969353;28;19922;-84
2022/04/25 04:22:47;;;;;;;;;;;;;;;13.72;70.75;99058.91;4969705;28;19920;-84
2022/04/25 04:25:13;;;;;;;;;;;;;;;13.30;72.97;99056.03;4967178;28;20423;-84
2022/04/25 04:27:42;;;;;;;;;;;;;;;13.57;72.26;99046.25;4969345;28;19918;-84
2022/04/25 04:30:11;;;;;;;;;;;;;;;13.80;71.66;99034.78;4968645;28;19918;-84
2022/04/25 04:32:38;;;;;;;;;;;;;;;13.86;71.79;99031.88;4968657;28;19917;-85
2022/04/25 04:35:06;;;;;;;;;;;;;;;13.95;72.08;99031.53;4969013;28;19914;-84
2022/04/25 04:37:33;;;;;;;;;;;;;;;14.08;72.33;99023.94;4968609;28;20016;-84
2022/04/25 04:42:43;;;;;;;;;;;;;;;14.44;71.78;99018.06;4968934;28;20404;-84
2022/04/25 04:45:11;;;;;;;;;;;;;;;14.53;72.25;99014.16;4968845;28;19918;-84
2022/04/25 04:47:36;;;;;;;;;;;;;;;14.68;72.17;99016.19;4968656;28;19918;-84
2022/04/25 04:50:03;;;;;;;;;;;;;;;14.79;71.58;99015.72;4968341;28;19925;-85
2022/04/25 04:52:28;;;;;;;;;;;;;;;15.00;71.69;99002.47;4968777;28;19969;-83
2022/04/25 04:54:53;;;;;;;;;;;;;;;15.14;72.04;98997.41;4968795;28;20356;-84
2022/04/25 04:57:18;;;;;;;;;;;;;;;15.19;72.85;98989.22;4968517;28;20352;-85
2022/04/25 04:59:44;;;;;;;;;;;;;;;15.45;71.71;99005.78;4968547;28;19945;-84
2022/04/25 05:02:09;;;;;;;;;;;;;;;15.71;70.25;98994.78;4967866;28;19917;-83
2022/04/25 05:04:34;;;;;;;;;;;;;;;15.96;68.61;98993.66;4968079;28;19965;-84
2022/04/25 05:07:00;;;;;;;;;;;;;;;15.78;69.47;98991.88;4968510;28;19925;-84
2022/04/25 05:09:25;;;;;;;;;;;;;;;15.76;71.30;98991.91;4968477;28;19914;-83
2022/04/25 05:11:50;;;;;;;;;;;;;;;16.00;71.60;98997.00;4968219;28;19944;-84
2022/04/25 05:14:16;;;;;;;;;;;;;;;16.15;70.82;98995.41;4968727;28;20731;-84
2022/04/25 05:16:41;;;;;;;;;;;;;;;16.42;69.12;98983.41;4968318;28;20472;-84
2022/04/25 05:19:06;;;;;;;;;;;;;;;16.65;67.76;98978.69;4968780;28;20005;-84
2022/04/25 05:21:32;;;;;;;;;;;;;;;16.92;66.83;98992.41;4968079;28;20479;-83
2022/04/25 05:23:57;;;;;;;;;;;;;;;17.15;66.73;98995.69;4969037;28;20004;-83
2022/04/25 05:26:23;;;;;;;;;;;;;;;17.21;64.67;99016.69;4968441;28;19914;-84
2022/04/25 05:28:48;;;;;;;;;;;;;;;16.98;65.06;99031.22;4968721;28;19960;-84
2022/04/25 05:31:14;;;;;;;;;;;;;;;16.98;62.93;99025.88;4968359;28;19918;-83
2022/04/25 05:33:39;;;;;;;;;;;;;;;17.31;61.45;99036.53;4968673;28;19914;-83
2022/04/25 05:36:05;;;;;;;;;;;;;;;17.23;64.14;99037.91;4968671;28;19918;-84
2022/04/25 05:38:30;;;;;;;;;;;;;;;17.32;64.02;99035.63;4968843;28;19918;-84
2022/04/25 05:40:56;;;;;;;;;;;;;;;17.28;66.02;99044.69;4968432;28;19957;-85
2022/04/25 05:43:23;;;;;;;;;;;;;;;17.12;66.55;99057.97;4968901;28;19918;-84
2022/04/25 05:45:48;;;;;;;;;;;;;;;16.75;66.74;99070.50;4968013;28;19964;-84
2022/04/25 05:53:42;;;;;;;;;;;;;;;16.94;65.96;99093.56;4967745;28;19972;-84
2022/04/25 05:56:07;;;;;;;;;;;;;;;17.08;64.17;99099.03;4969312;28;19918;-84
2022/04/25 05:58:32;;;;;;;;;;;;;;;17.27;64.06;99103.41;4959025;28;19951;-84
2022/04/25 06:00:58;;;;;;;;;;;;;;;17.33;64.22;99097.78;4949575;28;19922;-84
2022/04/25 06:03:24;;;;;;;;;;;;;;;17.78;62.21;99098.97;4949056;28;19918;-85
2022/04/25 06:05:49;;;;;;;;;;;;;;;17.78;61.34;99090.94;4949566;28;19932;-86
2022/04/25 06:08:14;;;;;;;;;;;;;;;17.98;58.59;99089.91;4949092;28;19961;-85
2022/04/25 06:10:40;;;;;;;;;;;;;;;18.11;58.54;99097.22;4948730;29;20005;-84
2022/04/25 06:13:06;;;;;;;;;;;;;;;18.42;59.47;99097.19;4949490;28;19918;-85
2022/04/25 06:15:31;;;;;;;;;;;;;;;18.46;56.76;99097.03;4952449;28;19922;-85
2022/04/25 06:17:57;;;;;;;;;;;;;;;18.31;58.75;99093.44;4952391;28;19918;-86
2022/04/25 06:20:22;;;;;;;;;;;;;;;18.90;59.10;99090.97;4952507;28;20397;-85
2022/04/25 06:22:54;;;;;;;;;;;;;;;19.30;55.82;99086.75;4952350;28;20353;-84
2022/04/25 06:25:20;;;;;;;;;;;;;;;19.40;55.67;99087.06;4952051;28;19925;-84
2022/04/25 06:27:45;;;;;;;;;;;;;;;19.82;54.56;99088.06;4952362;28;19918;-83
2022/04/25 06:30:11;;;;;;;;;;;;;;;19.02;55.51;99090.22;4951910;28;20519;-84
2022/04/25 06:32:37;;;;;;;;;;;;;;;19.11;56.07;99088.84;4952249;28;20344;-84
2022/04/25 06:35:02;;;;;;;;;;;;;;;19.20;56.80;99090.97;4952105;28;19922;-84
2022/04/25 06:37:28;;;;;;;;;;;;;;;19.59;55.57;99083.28;4951723;28;20399;-83
2022/04/25 06:39:53;;;;;;;;;;;;;;;19.32;54.26;99084.88;4951901;28;19973;-84
2022/04/25 06:42:18;;;;;;;;;;;;;;;19.66;54.49;99076.56;4951736;28;19920;-84
2022/04/25 06:44:44;;;;;;;;;;;;;;;19.94;53.07;99074.84;4951757;28;19918;-85
2022/04/25 06:47:09;;;;;;;;;;;;;;;20.09;53.28;99063.16;4951990;28;20005;-84
2022/04/25 06:49:34;;;;;;;;;;;;;;;20.09;50.63;99068.53;4951670;28;20395;-84
2022/04/25 06:52:01;;;;;;;;;;;;;;;20.06;52.13;99075.91;4952169;28;19919;-84
2022/04/25 06:54:27;;;;;;;;;;;;;;;19.70;51.09;99082.59;4951941;28;19921;-83
2022/04/25 06:56:55;;;;;;;;;;;;;;;19.75;51.40;99069.78;4951844;28;20411;-83
2022/04/25 06:59:21;;;;;;;;;;;;;;;19.44;52.21;99069.88;4952142;28;19985;-83
2022/04/25 07:01:50;;;;;;;;;;;;;;;19.75;51.65;99078.66;4952467;28;19918;-84
2022/04/25 07:04:16;;;;;;;;;;;;;;;19.89;52.23;99076.97;4951610;28;19919;-84
2022/04/25 07:06:42;;;;;;;;;;;;;;;20.63;49.97;99088.28;4951773;28;20460;-83
2022/04/25 07:09:12;;;;;;;;;;;;;;;20.62;49.83;99070.47;4952200;28;20004;-83
2022/04/25 07:11:40;;;;;;;;;;;;;;;20.90;49.16;99089.16;4952664;28;19925;-84
2022/04/25 07:14:06;;;;;;;;;;;;;;;20.60;48.68;99083.13;4951737;28;19918;-84
2022/04/25 07:16:31;;;;;;;;;;;;;;;20.79;49.77;99075.63;4952424;28;19965;-83
2022/04/25 07:18:57;;;;;;;;;;;;;;;20.78;48.41;99083.75;4952518;28;19914;-84
2022/04/25 07:29:35;;;;;;;;;;;;;;;22.23;45.82;99058.44;4952310;29;19925;-85
2022/04/25 07:32:00;;;;;;;;;;;;;;;21.88;45.74;99069.06;4950964;28;19915;-85
2022/04/25 07:34:25;;;;;;;;;;;;;;;22.22;47.65;99067.44;4951841;28;19920;-83
2022/04/25 07:36:53;;;;;;;;;;;;;;;22.56;45.73;99070.38;4950843;28;19961;-84
2022/04/25 07:39:22;;;;;;;;;;;;;;;22.77;46.57;99058.97;4950928;28;19918;-84
2022/04/25 07:41:48;;;;;;;;;;;;;;;23.00;44.37;99058.09;4951568;28;19926;-81
2022/04/25 07:44:13;;;;;;;;;;;;;;;23.03;47.46;99065.03;4954928;28;19918;-83
2022/04/25 07:46:42;;;;;;;;;;;;;;;22.97;45.00;99065.50;4956888;28;19965;-85
2022/04/25 07:49:09;;;;;;;;;;;;;;;23.05;44.70;99061.28;4954798;28;19929;-83
2022/04/25 07:51:34;;;;;;;;;;;;;;;22.93;45.11;99059.53;4952919;28;19924;-84
2022/04/25 07:54:00;;;;;;;;;;;;;;;23.04;43.41;99047.94;4954680;28;19919;-84
2022/04/25 07:56:26;;;;;;;;;;;;;;;22.89;44.59;99039.22;4954004;28;20341;-85
2022/04/25 07:58:51;;;;;;;;;;;;;;;23.97;42.27;99030.81;4951089;29;20352;-85
2022/04/25 08:01:16;;;;;;;;;;;;;;;24.16;41.14;99021.22;4952418;28;19969;-84
2022/04/25 08:03:42;;;;;;;;;;;;;;;24.11;41.24;99019.78;4952060;28;19914;-84
2022/04/25 08:06:07;;;;;;;;;;;;;;;23.75;42.61;99015.50;4952012;28;19918;-84
2022/04/25 08:08:32;;;;;;;;;;;;;;;24.42;45.40;99017.25;4952934;28;19918;-84
2022/04/25 08:10:58;;;;;;;;;;;;;;;24.59;43.51;99013.19;4951924;28;19922;-85
2022/04/25 08:18:52;;;;;;;;;;;;;;;23.81;43.35;99008.78;4950939;29;19917;-88
2022/04/25 08:21:17;;;;;;;;;;;;;;;24.16;42.43;99014.03;4950072;28;19958;-88
2022/04/25 08:23:45;;;;;;;;;;;;;;;24.48;45.96;99002.38;4951664;28;19957;-87
2022/04/25 08:26:11;;;;;;;;;;;;;;;24.54;43.56;98998.34;4950375;28;19922;-88
2022/04/25 08:28:36;;;;;;;;;;;;;;;24.84;40.48;98986.81;4949773;28;19925;-86
2022/04/25 08:31:01;;;;;;;;;;;;;;;24.90;39.89;98989.00;4948586;28;20424;-86
2022/04/25 08:33:27;;;;;;;;;;;;;;;24.75;40.68;98993.00;4950588;28;19926;-87
2022/04/25 08:35:52;;;;;;;;;;;;;;;24.82;40.13;98991.47;4950422;28;20377;-85
2022/04/25 08:38:17;;;;;;;;;;;;;;;24.41;41.32;98985.88;4951731;28;20013;-86
2022/04/25 08:40:44;;;;;;;;;;;;;;;24.51;42.09;98985.13;4950773;29;19920;-86
2022/04/25 08:43:11;;;;;;;;;;;;;;;25.09;40.28;98982.00;4953223;28;19918;-85
2022/04/25 08:45:37;;;;;;;;;;;;;;;25.06;40.81;98975.03;4948771;29;20393;-85
2022/04/25 08:48:03;;;;;;;;;;;;;;;24.90;42.01;98970.13;4949137;29;20320;-85
2022/04/25 08:50:29;;;;;;;;;;;;;;;24.95;40.25;98975.97;4949070;28;19925;-85
2022/04/25 08:52:56;;;;;;;;;;;;;;;24.87;42.04;98972.19;4949941;28;19918;-85
2022/04/25 08:55:21;;;;;;;;;;;;;;;25.37;41.00;98973.22;4950191;28;19918;-86
2022/04/25 08:57:48;;;;;;;;;;;;;;;25.34;40.28;98970.81;4948867;28;19918;-86
2022/04/25 09:00:15;;;;;;;;;;;;;;;25.33;42.88;98966.41;4949463;28;20444;-87
2022/04/25 09:02:40;;;;;;;;;;;;;;;25.42;39.58;98962.03;4949624;28;19929;-86
2022/04/25 09:05:09;;;;;;;;;;;;;;;25.12;40.44;98955.63;4949316;28;19922;-86
2022/04/25 09:07:35;;;;;;;;;;;;;;;25.57;40.53;98956.28;4949402;28;19925;-86
2022/04/25 09:10:00;;;;;;;;;;;;;;;25.43;39.63;98958.34;4948556;28;19918;-85
2022/04/25 09:12:26;;;;;;;;;;;;;;;25.42;39.76;98959.31;4948902;28;19961;-85
2022/04/25 09:14:51;;;;;;;;;;;;;;;25.59;38.34;98957.81;4949021;28;19921;-85
2022/04/25 09:17:17;;;;;;;;;;;;;;;25.32;39.10;98959.28;4949307;28;20401;-84
2022/04/25 09:19:42;;;;;;;;;;;;;;;25.62;39.86;98945.91;4949156;28;19974;-84
2022/04/25 09:22:09;;;;;;;;;;;;;;;25.96;40.10;98950.97;4949401;28;19973;-86
2022/04/25 09:24:35;;;;;;;;;;;;;;;25.76;38.07;98937.41;4948972;28;19918;-85
2022/04/25 09:27:06;;;;;;;;;;;;;;;25.70;38.89;98940.66;4948731;28;19997;-84
2022/04/25 09:29:32;;;;;;;;;;;;;;;25.48;42.16;98922.84;4948101;29;20592;-85
2022/04/25 09:31:57;;;;;;;;;;;;;;;25.51;42.53;98938.78;4949277;28;20052;-85
2022/04/25 09:37:07;;;;;;;;;;;;;;;25.82;38.67;98925.22;4948954;29;19961;-85
2022/04/25 09:39:32;;;;;;;;;;;;;;;25.67;40.25;98922.91;4948698;28;20003;-87
2022/04/25 09:41:58;;;;;;;;;;;;;;;25.92;39.21;98926.94;4948966;28;19918;-85
2022/04/25 09:44:23;;;;;;;;;;;;;;;26.11;42.13;98919.03;4948397;28;19938;-86
2022/04/25 09:46:49;;;;;;;;;;;;;;;25.90;39.43;98915.44;4949102;28;19914;-85
2022/04/25 09:49:20;;;;;;;;;;;;;;;25.45;40.02;98907.75;4952789;28;19994;-84
2022/04/25 09:51:59;;;;;;;;;;;;;;;25.83;41.67;98898.06;4952564;28;19918;-84
2022/04/25 09:54:24;;;;;;;;;;;;;;;25.84;39.85;98909.72;4952397;28;19969;-85
2022/04/25 09:56:51;;;;;;;;;;;;;;;25.50;39.00;98910.94;4952549;28;19918;-86
2022/04/25 09:59:16;;;;;;;;;;;;;;;25.46;40.88;98912.19;4952544;28;19915;-84
2022/04/25 10:01:43;;;;;;;;;;;;;;;25.37;41.83;98904.91;4952352;28;19942;-84
2022/04/25 10:04:27;;;;;;;;;;;;;;;25.61;40.98;98911.78;4952390;28;19962;-84
2022/04/25 10:06:54;;;;;;;;;;;;;;;25.81;39.29;98899.19;4952086;29;19914;-85
2022/04/25 10:09:20;;;;;;;;;;;;;;;25.72;38.30;98900.91;4952325;28;19918;-85
2022/04/25 10:11:46;;;;;;;;;;;;;;;25.84;39.09;98897.06;4952491;28;20278;-84
2022/04/25 10:14:12;;;;;;;;;;;;;;;26.26;38.15;98896.84;4951863;28;20332;-84
2022/04/25 10:16:37;;;;;;;;;;;;;;;26.14;36.99;98891.72;4952007;28;19918;-85
2022/04/25 10:19:03;;;;;;;;;;;;;;;25.83;38.35;98889.13;4952524;28;19997;-87
2022/04/25 10:21:32;;;;;;;;;;;;;;;25.90;38.50;98888.41;4951724;28;19965;-83
2022/04/25 10:23:57;;;;;;;;;;;;;;;25.55;36.83;98887.06;4951929;28;20368;-85
2022/04/25 10:26:26;;;;;;;;;;;;;;;25.59;38.22;98886.78;4951962;28;19918;-85
2022/04/25 10:28:54;;;;;;;;;;;;;;;25.70;38.58;98874.03;4952239;28;19925;-86
2022/04/25 10:31:30;;;;;;;;;;;;;;;25.73;40.74;98883.66;4952038;28;20620;-87
2022/04/25 10:33:59;;;;;;;;;;;;;;;26.07;38.94;98875.22;4951476;28;19925;-84
2022/04/25 10:36:36;;;;;;;;;;;;;;;26.06;39.00;98879.78;4951824;28;19924;-85
2022/04/25 10:39:12;;;;;;;;;;;;;;;26.02;39.69;98874.78;4951553;28;19929;-86
2022/04/25 10:44:21;;;;;;;;;;;;;;;26.26;41.05;98874.38;4955597;28;19933;-88
2022/04/25 10:47:06;;;;;;;;;;;;;;;26.28;39.37;98866.97;4959785;28;19914;-86
2022/04/25 10:49:31;;;;;;;;;;;;;;;25.96;40.90;98873.47;4954068;28;19977;-87
2022/04/25 10:51:57;;;;;;;;;;;;;;;25.89;39.13;98861.53;4960864;28;20140;-87
2022/04/25 10:54:27;;;;;;;;;;;;;;;25.82;39.79;98865.78;4960203;28;19946;-85
2022/04/25 10:57:08;;;;;;;;;;;;;;;26.02;38.58;98859.41;4959547;28;19941;-86
2022/04/25 10:59:33;;;;;;;;;;;;;;;25.89;39.00;98862.38;4957017;28;19965;-86
2022/04/25 11:01:59;;;;;;;;;;;;;;;25.95;38.70;98857.41;4958778;28;19921;-86
2022/04/25 11:04:25;;;;;;;;;;;;;;;25.48;39.58;98863.44;4957998;28;19925;-86
2022/04/25 11:07:24;;;;;;;;;;;;;;;25.61;39.52;98858.66;4963430;28;20424;-86
2022/04/25 11:09:49;;;;;;;;;;;;;;;26.04;39.58;98853.88;4929140;28;19918;-86
2022/04/25 11:12:15;;;;;;;;;;;;;;;26.40;38.90;98851.41;4951116;28;19918;-85
2022/04/25 11:15:12;;;;;;;;;;;;;;;26.38;38.65;98859.66;4951226;28;19921;-84
2022/04/25 11:17:58;;;;;;;;;;;;;;;25.85;39.49;98847.44;4918195;28;19968;-85
2022/04/25 11:20:42;;;;;;;;;;;;;;;25.76;39.78;98844.75;4950501;29;20020;-84
2022/04/25 11:23:23;;;;;;;;;;;;;;;25.66;38.94;98842.03;4951017;29;19918;-85
2022/04/25 11:25:48;;;;;;;;;;;;;;;26.16;41.25;98836.53;4948898;29;20005;-84
2022/04/25 11:28:14;;;;;;;;;;;;;;;26.27;41.34;98828.28;4950844;28;20005;-84
2022/04/25 11:30:40;;;;;;;;;;;;;;;26.27;37.90;98827.41;4950819;28;20393;-84
2022/04/25 11:33:10;;;;;;;;;;;;;;;26.36;38.19;98831.94;4950811;28;19918;-85
2022/04/25 11:35:36;;;;;;;;;;;;;;;26.47;37.91;98838.19;4950583;28;19922;-85
2022/04/25 11:38:02;;;;;;;;;;;;;;;26.96;38.49;98837.06;4950766;28;19976;-86
2022/04/25 11:40:27;;;;;;;;;;;;;;;26.75;37.54;98831.03;4950676;28;19922;-86
2022/04/25 11:42:53;;;;;;;;;;;;;;;26.73;37.50;98827.63;4950900;28;19922;-84
2022/04/25 11:45:19;;;;;;;;;;;;;;;26.72;36.75;98831.31;4950684;28;20440;-85
2022/04/25 11:47:44;;;;;;;;;;;;;;;26.71;38.89;98829.59;4950862;28;20511;-87
2022/04/25 11:50:13;;;;;;;;;;;;;;;27.05;37.63;98820.94;4950444;28;20107;-85
2022/04/25 11:52:47;;;;;;;;;;;;;;;27.28;37.12;98822.25;4950777;28;19965;-85
2022/04/25 11:55:13;;;;;;;;;;;;;;;27.31;35.53;98815.66;4948921;28;19922;-86
2022/04/25 11:57:39;;;;;;;;;;;;;;;26.76;39.56;98813.81;4950400;28;19918;-85
2022/04/25 12:00:12;;;;;;;;;;;;;;;27.22;36.23;98811.16;4950532;28;19919;-86
2022/04/25 12:02:38;;;;;;;;;;;;;;;27.46;35.83;98803.34;4950381;28;19915;-84
2022/04/25 12:05:07;;;;;;;;;;;;;;;27.51;37.46;98808.31;4950285;28;19919;-84
2022/04/25 12:07:32;;;;;;;;;;;;;;;27.87;35.04;98809.19;4950033;28;19968;-85
2022/04/25 12:15:42;;;;;;;;;;;;;;;28.18;35.93;98807.94;4950141;28;20376;-84
2022/04/25 12:18:24;;;;;;;;;;;;;;;28.55;36.66;98798.72;4950230;28;19914;-86
2022/04/25 12:21:08;;;;;;;;;;;;;;;28.31;35.58;98785.84;4949612;28;19930;-86
2022/04/25 12:23:34;;;;;;;;;;;;;;;28.51;34.24;98792.75;4949796;28;19918;-86
2022/04/25 12:26:03;;;;;;;;;;;;;;;28.23;33.96;98792.88;4949746;28;20393;-85
2022/04/25 12:28:30;;;;;;;;;;;;;;;27.88;33.68;98785.63;4950240;28;19918;-86
2022/04/25 12:31:05;;;;;;;;;;;;;;;28.02;35.49;98795.09;4950000;28;19930;-86
2022/04/25 12:33:35;;;;;;;;;;;;;;;28.18;32.48;98780.84;4949518;28;19926;-85
2022/04/25 12:36:10;;;;;;;;;;;;;;;28.23;32.74;98783.91;4950065;28;20060;-85
2022/04/25 12:38:40;;;;;;;;;;;;;;;28.23;34.02;98773.06;4949448;28;19910;-85
2022/04/25 12:41:06;;;;;;;;;;;;;;;27.95;33.79;98772.31;4948867;28;19918;-84
2022/04/25 12:43:39;;;;;;;;;;;;;;;28.28;35.32;98772.59;4949581;28;20384;-86
2022/04/25 12:46:06;;;;;;;;;;;;;;;28.28;36.77;98770.72;4949333;28;19942;-83
2022/04/25 12:48:52;;;;;;;;;;;;;;;27.97;37.94;98767.63;4949643;28;19922;-85
2022/04/25 12:51:26;;;;;;;;;;;;;;;28.40;34.74;98758.59;4949126;29;19914;-85
2022/04/25 12:53:51;;;;;;;;;;;;;;;27.98;37.58;98756.63;4949249;28;19926;-86
2022/04/25 12:56:24;;;;;;;;;;;;;;;28.11;36.09;98756.22;4949010;28;19924;-86
2022/04/25 12:58:50;;;;;;;;;;;;;;;27.99;34.78;98755.63;4949603;28;19922;-86
2022/04/25 13:01:34;;;;;;;;;;;;;;;28.23;37.59;98752.22;4949383;28;19928;-85
2022/04/25 13:04:05;;;;;;;;;;;;;;;28.28;35.82;98753.63;4949325;28;19973;-84
2022/04/25 13:06:30;;;;;;;;;;;;;;;28.35;34.52;98747.41;4949098;28;19914;-86
2022/04/25 13:08:56;;;;;;;;;;;;;;;28.58;33.62;98750.44;4949300;28;20366;-85
2022/04/25 13:11:22;;;;;;;;;;;;;;;28.38;33.35;98740.81;4948879;28;19957;-83
2022/04/25 13:13:47;;;;;;;;;;;;;;;28.49;33.16;98745.13;4948809;28;19915;-84
2022/04/25 13:16:13;;;;;;;;;;;;;;;28.72;33.62;98748.97;4948944;28;19918;-84
2022/04/25 13:18:38;;;;;;;;;;;;;;;28.85;30.08;98750.41;4949337;28;19972;-84
2022/04/25 13:21:03;;;;;;;;;;;;;;;28.54;30.92;98737.34;4949249;28;19996;-84
2022/04/25 13:23:30;;;;;;;;;;;;;;;28.62;28.82;98740.09;4949492;28;19919;-84
2022/04/25 13:25:55;;;;;;;;;;;;;;;28.81;29.74;98738.16;4952723;28;19925;-85